createdAt,value
2022-09-05T00:00:23.018Z,100.00
2022-09-05T00:02:55.743Z,100.00
2022-09-05T00:06:01.658Z,100.00
2022-09-05T00:08:52.646Z,100.00
2022-09-05T00:11:41.278Z,100.00
2022-09-05T00:14:35.262Z,100.00
2022-09-05T00:17:21.617Z,100.00
2022-09-05T00:24:22.268Z,100.00
2022-09-05T00:24:28.564Z,100.00
2022-09-05T00:25:54.005Z,100.00
2022-09-05T00:28:46.862Z,100.00
2022-09-05T00:31:53.538Z,100.00
2022-09-05T00:34:26.831Z,100.00
2022-09-05T00:37:10.708Z,100.00
2022-09-05T00:39:47.665Z,100.00
2022-09-05T00:42:21.365Z,100.00
2022-09-05T00:45:03.490Z,100.00
2022-09-05T00:47:41.185Z,100.00
2022-09-05T00:50:30.749Z,100.00
2022-09-05T00:53:13.553Z,100.00
2022-09-05T00:56:05.478Z,100.00
2022-09-05T00:58:50.359Z,100.00
2022-09-05T01:01:25.553Z,100.00
2022-09-05T01:04:01.587Z,100.00
2022-09-05T01:07:09.833Z,100.00
2022-09-05T01:09:45.359Z,100.00
2022-09-05T01:12:32.253Z,100.00
2022-09-05T01:15:32.356Z,100.00
2022-09-05T01:18:31.778Z,100.00
2022-09-05T01:21:19.850Z,100.00
2022-09-05T01:24:12.559Z,100.00
2022-09-05T01:26:57.186Z,100.00
2022-09-05T01:29:52.876Z,100.00
2022-09-05T01:32:28.566Z,100.00
2022-09-05T01:35:26.174Z,100.00
2022-09-05T01:38:03.057Z,100.00
2022-09-05T01:40:46.910Z,100.00
2022-09-05T01:43:42.472Z,100.00
2022-09-05T01:46:25.286Z,100.00
2022-09-05T01:48:56.398Z,100.00
2022-09-05T01:51:58.731Z,100.00
2022-09-05T01:54:56.853Z,100.00
2022-09-05T01:57:51.431Z,100.00
2022-09-05T02:00:34.206Z,100.00
2022-09-05T02:03:23.143Z,100.00
2022-09-05T02:06:21.349Z,100.00
2022-09-05T02:09:10.026Z,100.00
2022-09-05T02:11:51.390Z,100.00
2022-09-05T02:14:29.811Z,100.00
2022-09-05T02:17:27.401Z,100.00
2022-09-05T02:20:08.013Z,100.00
2022-09-05T02:22:43.787Z,100.00
2022-09-05T02:26:00.233Z,100.00
2022-09-05T02:28:10.734Z,100.00
2022-09-05T02:30:51.753Z,100.00
2022-09-05T02:33:46.857Z,100.00
2022-09-05T02:36:32.575Z,100.00
2022-09-05T02:44:33.856Z,100.00
2022-09-05T02:45:17.256Z,100.00
2022-09-05T02:45:30.536Z,100.00
2022-09-05T02:48:15.549Z,100.00
2022-09-05T02:53:06.555Z,100.00
2022-09-05T02:57:28.763Z,100.00
2022-09-05T02:57:36.179Z,100.00
2022-09-05T02:59:58.282Z,100.00
2022-09-05T03:02:43.442Z,100.00
2022-09-05T03:05:38.242Z,100.00
2022-09-05T03:08:14.961Z,100.00
2022-09-05T03:11:02.755Z,100.00
2022-09-05T03:14:07.139Z,100.00
2022-09-05T03:17:02.095Z,100.00
2022-09-05T03:19:46.229Z,100.00
2022-09-05T03:22:37.130Z,100.00
2022-09-05T03:25:16.346Z,100.00
2022-09-05T03:28:11.029Z,100.00
2022-09-05T03:30:57.125Z,100.00
2022-09-05T03:33:47.294Z,100.00
2022-09-05T03:36:32.421Z,100.00
2022-09-05T03:39:14.218Z,100.00
2022-09-05T03:42:17.880Z,100.00
2022-09-05T03:44:48.725Z,100.00
2022-09-05T03:47:36.615Z,100.00
2022-09-05T03:57:07.414Z,100.00
2022-09-05T03:57:17.964Z,100.00
2022-09-05T03:57:23.588Z,100.00
2022-09-05T04:00:07.369Z,100.00
2022-09-05T04:06:58.353Z,100.00
2022-09-05T04:08:17.419Z,100.00
2022-09-05T04:08:44.211Z,100.00
2022-09-05T04:11:14.338Z,100.00
2022-09-05T04:13:49.450Z,100.00
2022-09-05T04:16:25.197Z,100.00
2022-09-05T04:18:56.687Z,100.00
2022-09-05T04:21:34.918Z,100.00
2022-09-05T04:24:05.737Z,100.00
2022-09-05T04:26:41.489Z,100.00
2022-09-05T04:29:08.130Z,100.00
2022-09-05T04:31:45.738Z,100.00
2022-09-05T04:34:27.203Z,100.00
2022-09-05T04:37:10.574Z,100.00
2022-09-05T04:39:37.575Z,100.00
2022-09-05T04:42:27.090Z,100.00
2022-09-05T04:45:24.085Z,100.00
2022-09-05T04:47:55.318Z,100.00
2022-09-05T04:50:24.868Z,100.00
2022-09-05T04:52:57.590Z,100.00
2022-09-05T04:55:28.695Z,100.00
2022-09-05T04:58:00.886Z,100.00
2022-09-05T05:06:05.975Z,100.00
2022-09-05T05:06:09.429Z,100.00
2022-09-05T05:06:43.842Z,100.00
2022-09-05T05:09:24.270Z,100.00
2022-09-05T05:18:00.300Z,100.00
2022-09-05T05:18:11.477Z,100.00
2022-09-05T05:18:14.368Z,100.00
2022-09-05T05:20:58.363Z,100.00
2022-09-05T05:23:39.367Z,100.00
2022-09-05T05:26:20.723Z,100.00
2022-09-05T05:29:09.094Z,100.00
2022-09-05T05:31:58.249Z,100.00
2022-09-05T05:34:31.973Z,100.00
2022-09-05T05:37:05.306Z,100.00
2022-09-05T05:39:37.860Z,100.00
2022-09-05T05:42:20.258Z,100.00
2022-09-05T05:44:53.870Z,100.00
2022-09-05T05:47:31.244Z,100.00
2022-09-05T05:50:40.262Z,100.00
2022-09-05T05:53:43.606Z,100.00
2022-09-05T05:56:19.374Z,100.00
2022-09-05T05:59:11.151Z,100.00
2022-09-05T06:01:56.163Z,100.00
2022-09-05T06:04:54.619Z,100.00
2022-09-05T06:07:27.171Z,100.00
2022-09-05T06:14:52.657Z,100.00
2022-09-05T06:15:00.161Z,100.00
2022-09-05T06:17:11.181Z,100.00
2022-09-05T06:22:04.440Z,100.00
2022-09-05T06:22:54.873Z,100.00
2022-09-05T06:25:52.254Z,100.00
2022-09-05T06:28:36.883Z,100.00
2022-09-05T06:31:33.673Z,100.00
2022-09-05T06:34:12.962Z,100.00
2022-09-05T06:37:22.178Z,100.00
2022-09-05T06:39:48.841Z,100.00
2022-09-05T06:42:33.357Z,100.00
2022-09-05T06:45:29.676Z,100.00
2022-09-05T06:48:45.849Z,100.00
2022-09-05T06:51:32.611Z,100.00
2022-09-05T06:54:29.260Z,100.00
2022-09-05T06:57:43.913Z,100.00
2022-09-05T07:00:19.653Z,100.00
2022-09-05T07:02:59.668Z,100.00
2022-09-05T07:05:45.845Z,100.00
2022-09-05T07:08:29.864Z,100.00
2022-09-05T07:11:23.723Z,100.00
2022-09-05T07:13:58.258Z,100.00
2022-09-05T07:16:38.976Z,100.00
2022-09-05T07:19:26.602Z,100.00
2022-09-05T07:22:46.247Z,100.00
2022-09-05T07:25:18.399Z,100.00
2022-09-05T07:28:28.680Z,100.00
2022-09-05T07:31:00.791Z,100.00
2022-09-05T07:33:31.107Z,100.00
2022-09-05T07:36:08.984Z,100.00
2022-09-05T07:38:52.189Z,100.00
2022-09-05T07:41:43.104Z,100.00
2022-09-05T07:44:22.214Z,100.00
2022-09-05T07:46:56.185Z,100.00
2022-09-05T07:49:27.871Z,100.00
2022-09-05T07:56:56.830Z,100.00
2022-09-05T07:57:01.033Z,100.00
2022-09-05T07:57:52.103Z,100.00
2022-09-05T08:00:26.596Z,100.00
2022-09-05T08:02:59.592Z,100.00
2022-09-05T08:05:35.726Z,100.00
2022-09-05T08:08:08.620Z,100.00
2022-09-05T08:11:24.434Z,100.00
2022-09-05T08:13:40.548Z,100.00
2022-09-05T08:16:13.803Z,100.00
2022-09-05T08:19:09.845Z,100.00
2022-09-05T08:21:51.594Z,100.00
2022-09-05T08:24:33.074Z,100.00
2022-09-05T08:27:16.207Z,100.00
2022-09-05T08:30:26.502Z,100.00
2022-09-05T08:32:49.092Z,100.00
2022-09-05T08:35:42.853Z,100.00
2022-09-05T08:38:11.926Z,100.00
2022-09-05T08:40:46.843Z,100.00
2022-09-05T08:46:37.623Z,100.00
2022-09-05T08:46:47.584Z,100.00
2022-09-05T08:49:49.960Z,100.00
2022-09-05T08:52:40.303Z,100.00
2022-09-05T08:55:24.650Z,100.00
2022-09-05T08:57:57.079Z,100.00
2022-09-05T09:00:27.606Z,100.00
2022-09-05T09:03:11.715Z,100.00
2022-09-05T09:06:13.305Z,100.00
2022-09-05T09:08:56.767Z,100.00
2022-09-05T09:11:36.839Z,100.00
2022-09-05T09:14:31.830Z,100.00
2022-09-05T09:17:23.424Z,100.00
2022-09-05T09:20:09.881Z,100.00
2022-09-05T09:22:55.318Z,100.00
2022-09-05T09:25:59.203Z,100.00
2022-09-05T09:28:50.507Z,100.00
2022-09-05T09:31:45.463Z,100.00
2022-09-05T09:34:21.792Z,100.00
2022-09-05T09:37:11.115Z,100.00
2022-09-05T09:40:04.836Z,100.00
2022-09-05T09:43:07.272Z,100.00
2022-09-05T09:46:10.131Z,100.00
2022-09-05T09:49:09.577Z,100.00
2022-09-05T09:52:20.755Z,100.00
2022-09-05T09:55:25.287Z,100.00
2022-09-05T09:58:29.070Z,100.00
2022-09-05T10:01:35.175Z,100.00
2022-09-05T10:10:36.155Z,100.00
2022-09-05T10:10:48.193Z,100.00
2022-09-05T10:10:49.906Z,100.00
2022-09-05T10:13:20.284Z,100.00
2022-09-05T10:16:30.705Z,100.00
2022-09-05T10:20:08.056Z,100.00
2022-09-05T10:25:19.177Z,100.00
2022-09-05T10:28:07.909Z,100.00
2022-09-05T10:33:21.284Z,100.00
2022-09-05T10:35:12.935Z,100.00
2022-09-05T10:36:31.757Z,100.00
2022-09-05T10:39:15.018Z,100.00
2022-09-05T10:42:00.277Z,100.00
2022-09-05T10:44:41.367Z,100.00
2022-09-05T10:47:23.679Z,100.00
2022-09-05T10:50:16.287Z,100.00
2022-09-05T10:53:20.575Z,100.00
2022-09-05T10:56:22.677Z,100.00
2022-09-05T10:59:31.790Z,100.00
2022-09-05T11:02:25.903Z,100.00
2022-09-05T11:05:16.136Z,100.00
2022-09-05T11:08:02.000Z,100.00
2022-09-05T11:10:37.140Z,100.00
2022-09-05T11:13:11.962Z,100.00
2022-09-05T11:15:43.969Z,100.00
2022-09-05T11:18:30.373Z,100.00
2022-09-05T11:21:44.953Z,100.00
2022-09-05T11:24:14.894Z,100.00
2022-09-05T11:26:51.352Z,100.00
2022-09-05T11:29:41.330Z,100.00
2022-09-05T11:34:46.261Z,100.00
2022-09-05T11:40:10.065Z,100.00
2022-09-05T11:40:10.857Z,100.00
2022-09-05T11:41:44.742Z,100.00
2022-09-05T11:44:36.573Z,100.00
2022-09-05T11:47:26.571Z,100.00
2022-09-05T11:50:34.558Z,100.00
2022-09-05T11:53:04.050Z,100.00
2022-09-05T11:56:03.412Z,100.00
2022-09-05T11:58:48.755Z,100.00
2022-09-05T12:01:57.003Z,100.00
2022-09-05T12:04:46.506Z,100.00
2022-09-05T12:08:03.366Z,100.00
2022-09-05T12:10:46.246Z,100.00
2022-09-05T12:13:40.317Z,100.00
2022-09-05T12:16:18.873Z,100.00
2022-09-05T12:19:22.997Z,100.00
2022-09-05T12:21:57.570Z,100.00
2022-09-05T12:25:27.080Z,100.00
2022-09-05T12:28:24.155Z,100.00
2022-09-05T12:31:09.998Z,100.00
2022-09-05T12:36:02.409Z,100.00
2022-09-05T12:40:54.214Z,100.00
2022-09-05T12:41:34.767Z,100.00
2022-09-05T12:42:45.812Z,100.00
2022-09-05T12:45:50.178Z,100.00
2022-09-05T12:48:39.322Z,100.00
2022-09-05T12:51:46.847Z,100.00
2022-09-05T12:54:33.795Z,100.00
2022-09-05T13:02:37.914Z,100.00
2022-09-05T13:03:05.378Z,100.00
2022-09-05T13:03:27.821Z,100.00
2022-09-05T13:06:25.590Z,100.00
2022-09-05T13:09:03.606Z,90.74
2022-09-05T13:14:52.984Z,86.08
2022-09-05T13:15:03.096Z,92.50
2022-09-05T13:17:42.997Z,85.35
2022-09-05T13:20:36.648Z,85.30
2022-09-05T13:23:22.051Z,100.00
2022-09-05T13:26:23.840Z,100.00
2022-09-05T13:29:09.917Z,100.00
2022-09-05T13:37:58.703Z,100.00
2022-09-05T13:38:00.415Z,100.00
2022-09-05T13:38:12.828Z,87.46
2022-09-05T13:40:26.096Z,100.00
2022-09-05T13:43:12.813Z,100.00
2022-09-05T13:46:03.349Z,90.57
2022-09-05T13:51:51.039Z,100.00
2022-09-05T13:54:24.181Z,100.00
2022-09-05T13:57:31.716Z,100.00
2022-09-05T14:00:28.021Z,91.06
2022-09-05T14:03:40.809Z,83.44
2022-09-05T14:06:46.714Z,80.93
2022-09-05T14:09:57.831Z,80.94
2022-09-05T14:13:02.690Z,82.60
2022-09-05T14:15:38.634Z,79.20
2022-09-05T14:18:22.178Z,68.46
2022-09-05T14:21:16.493Z,67.19
2022-09-05T14:23:55.944Z,67.71
2022-09-05T14:26:31.673Z,70.67
2022-09-05T14:29:14.241Z,76.95
2022-09-05T14:37:36.765Z,74.81
2022-09-05T14:37:42.241Z,77.14
2022-09-05T14:38:09.717Z,71.15
2022-09-05T14:41:15.739Z,78.00
2022-09-05T14:44:05.357Z,71.67
2022-09-05T14:46:55.345Z,66.96
2022-09-05T14:49:54.423Z,64.47
2022-09-05T14:52:26.752Z,74.98
2022-09-05T15:02:45.269Z,71.26
2022-09-05T15:02:52.293Z,68.64
2022-09-05T15:06:35.436Z,68.20
2022-09-05T15:11:24.103Z,76.49
2022-09-05T15:12:27.883Z,71.65
2022-09-05T15:14:50.075Z,72.28
2022-09-05T15:17:24.535Z,70.75
2022-09-05T15:20:06.464Z,70.47
2022-09-05T15:22:41.655Z,73.52
2022-09-05T15:25:18.704Z,75.10
2022-09-05T15:27:47.029Z,76.78
2022-09-05T15:30:35.109Z,77.30
2022-09-05T15:33:25.381Z,74.79
2022-09-05T15:35:52.981Z,74.72
2022-09-05T15:38:22.667Z,79.77
2022-09-05T15:41:18.099Z,86.84
2022-09-05T15:44:13.650Z,81.67
2022-09-05T15:46:46.329Z,73.61
2022-09-05T15:49:32.625Z,79.99
2022-09-05T15:52:04.834Z,75.14
2022-09-05T15:55:10.874Z,73.62
2022-09-05T15:57:45.947Z,77.21
2022-09-05T16:00:51.622Z,74.93
2022-09-05T16:04:25.021Z,77.11
2022-09-05T16:10:28.409Z,81.74
2022-09-05T16:10:50.979Z,79.00
2022-09-05T16:12:17.728Z,75.42
2022-09-05T16:15:55.211Z,88.45
2022-09-05T16:23:19.047Z,97.91
2022-09-05T16:23:31.904Z,100.00
2022-09-05T16:24:04.116Z,100.00
2022-09-05T16:26:45.881Z,100.00
2022-09-05T16:29:28.093Z,100.00
2022-09-05T16:32:05.289Z,100.00
2022-09-05T16:35:07.143Z,100.00
2022-09-05T16:37:49.298Z,100.00
2022-09-05T16:40:25.094Z,100.00
2022-09-05T16:43:03.653Z,100.00
2022-09-05T16:45:44.639Z,100.00
2022-09-05T16:48:26.691Z,100.00
2022-09-05T16:51:16.393Z,100.00
2022-09-05T16:53:59.198Z,100.00
2022-09-05T16:56:46.267Z,100.00
2022-09-05T16:59:19.899Z,100.00
2022-09-05T17:02:06.454Z,100.00
2022-09-05T17:05:04.266Z,100.00
2022-09-05T17:07:42.529Z,100.00
2022-09-05T17:10:18.387Z,100.00
2022-09-05T17:12:45.604Z,100.00
2022-09-05T17:15:22.499Z,100.00
2022-09-05T17:18:20.516Z,100.00
2022-09-05T17:20:50.184Z,100.00
2022-09-05T17:28:56.034Z,100.00
2022-09-05T17:29:26.021Z,100.00
2022-09-05T17:29:40.096Z,100.00
2022-09-05T17:31:59.324Z,100.00
2022-09-05T17:34:39.293Z,100.00
2022-09-05T17:37:10.414Z,100.00
2022-09-05T17:39:45.390Z,100.00
2022-09-05T17:42:26.265Z,100.00
2022-09-05T17:45:17.744Z,100.00
2022-09-05T17:47:51.707Z,100.00
2022-09-05T17:50:32.980Z,100.00
2022-09-05T17:53:26.310Z,100.00
2022-09-05T17:55:54.528Z,100.00
2022-09-05T17:58:28.154Z,100.00
2022-09-05T18:01:16.073Z,100.00
2022-09-05T18:03:44.875Z,100.00
2022-09-05T18:06:14.371Z,100.00
2022-09-05T18:08:49.959Z,100.00
2022-09-05T18:11:25.308Z,100.00
2022-09-05T18:14:24.592Z,100.00
2022-09-05T18:17:35.904Z,100.00
2022-09-05T18:22:42.659Z,100.00
2022-09-05T18:25:30.564Z,100.00
2022-09-05T18:28:22.539Z,100.00
2022-09-05T18:30:49.660Z,100.00
2022-09-05T18:33:53.364Z,100.00
2022-09-05T18:36:25.493Z,100.00
2022-09-05T18:39:24.240Z,100.00
2022-09-05T18:42:26.003Z,100.00
2022-09-05T18:44:59.668Z,100.00
2022-09-05T18:47:34.129Z,100.00
2022-09-05T18:50:24.138Z,100.00
2022-09-05T18:53:09.533Z,100.00
2022-09-05T18:56:12.808Z,100.00
2022-09-05T18:59:10.346Z,100.00
2022-09-05T19:01:42.114Z,100.00
2022-09-05T19:04:39.509Z,100.00
2022-09-05T19:07:10.311Z,100.00
2022-09-05T19:09:39.562Z,100.00
2022-09-05T19:12:33.374Z,100.00
2022-09-05T19:15:08.316Z,100.00
2022-09-05T19:17:47.648Z,100.00
2022-09-05T19:20:32.680Z,100.00
2022-09-05T19:23:11.845Z,100.00
2022-09-05T19:25:44.732Z,100.00
2022-09-05T19:36:44.370Z,100.00
2022-09-05T19:36:51.929Z,100.00
2022-09-05T19:37:08.026Z,100.00
2022-09-05T19:44:59.253Z,100.00
2022-09-05T19:47:28.157Z,100.00
2022-09-05T19:47:56.151Z,100.00
2022-09-05T19:50:54.424Z,100.00
2022-09-05T19:53:21.730Z,100.00
2022-09-05T19:55:48.876Z,100.00
2022-09-05T19:58:20.783Z,100.00
2022-09-05T20:01:00.618Z,100.00
2022-09-05T20:03:28.142Z,100.00
2022-09-05T20:06:26.699Z,100.00
2022-09-05T20:09:21.474Z,100.00
2022-09-05T20:11:57.768Z,100.00
2022-09-05T20:14:30.352Z,100.00
2022-09-05T20:17:16.991Z,100.00
2022-09-05T20:19:44.806Z,100.00
2022-09-05T20:22:49.683Z,100.00
2022-09-05T20:25:37.100Z,100.00
2022-09-05T20:28:25.533Z,100.00
2022-09-05T20:30:59.768Z,100.00
2022-09-05T20:33:52.799Z,100.00
2022-09-05T20:41:58.864Z,100.00
2022-09-05T20:43:18.213Z,100.00
2022-09-05T20:43:32.632Z,100.00
2022-09-05T20:46:12.126Z,100.00
2022-09-05T20:54:06.089Z,100.00
2022-09-05T20:54:13.189Z,100.00
2022-09-05T20:54:41.946Z,100.00
2022-09-05T20:57:19.959Z,100.00
2022-09-05T20:59:47.301Z,100.00
2022-09-05T21:02:27.332Z,100.00
2022-09-05T21:05:20.871Z,100.00
2022-09-05T21:07:59.213Z,100.00
2022-09-05T21:10:55.421Z,100.00
2022-09-05T21:13:28.601Z,100.00
2022-09-05T21:15:56.230Z,100.00
2022-09-05T21:18:33.876Z,100.00
2022-09-05T21:21:25.712Z,100.00
2022-09-05T21:24:09.895Z,100.00
2022-09-05T21:26:43.835Z,100.00
2022-09-05T21:29:13.163Z,100.00
2022-09-05T21:32:10.833Z,100.00
2022-09-05T21:34:46.258Z,100.00
2022-09-05T21:37:15.303Z,100.00
2022-09-05T21:39:58.625Z,100.00
2022-09-05T21:45:50.535Z,100.00
2022-09-05T21:47:43.655Z,100.00
2022-09-05T21:48:08.719Z,100.00
2022-09-05T21:50:46.058Z,100.00
2022-09-05T21:56:13.689Z,100.00
2022-09-05T21:59:25.236Z,100.00
2022-09-05T21:59:30.398Z,100.00
2022-09-05T22:01:53.173Z,100.00
2022-09-05T22:04:21.054Z,100.00
2022-09-05T22:06:48.634Z,100.00
2022-09-05T22:09:21.058Z,100.00
2022-09-05T22:11:51.167Z,100.00
2022-09-05T22:14:27.549Z,100.00
2022-09-05T22:16:57.736Z,100.00
2022-09-05T22:19:37.435Z,100.00
2022-09-05T22:22:16.034Z,100.00
2022-09-05T22:25:04.467Z,100.00
2022-09-05T22:27:33.741Z,100.00
2022-09-05T22:30:02.915Z,100.00
2022-09-05T22:32:34.690Z,100.00
2022-09-05T22:35:26.815Z,100.00
2022-09-05T22:38:00.495Z,100.00
2022-09-05T22:40:31.325Z,100.00
2022-09-05T22:43:01.110Z,100.00
2022-09-05T22:45:29.231Z,100.00
2022-09-05T22:47:56.261Z,100.00
2022-09-05T22:50:24.052Z,100.00
2022-09-05T22:52:50.705Z,100.00
2022-09-05T22:55:18.010Z,100.00
2022-09-05T22:57:44.901Z,100.00
2022-09-05T23:00:11.959Z,100.00
2022-09-05T23:02:38.687Z,100.00
2022-09-05T23:05:06.836Z,100.00
2022-09-05T23:07:33.663Z,100.00
2022-09-05T23:10:00.244Z,100.00
2022-09-05T23:12:27.087Z,100.00
2022-09-05T23:14:54.035Z,100.00
2022-09-05T23:17:20.657Z,100.00
2022-09-05T23:19:47.550Z,100.00
2022-09-05T23:22:14.558Z,100.00
2022-09-05T23:24:41.146Z,100.00
2022-09-05T23:27:07.717Z,100.00
2022-09-05T23:29:34.426Z,100.00
2022-09-05T23:32:01.114Z,100.00
2022-09-05T23:34:28.716Z,100.00
2022-09-05T23:36:55.412Z,100.00
2022-09-05T23:39:21.993Z,100.00
2022-09-05T23:41:48.666Z,100.00
2022-09-05T23:44:15.382Z,100.00
2022-09-05T23:46:42.295Z,100.00
2022-09-05T23:49:09.029Z,100.00
2022-09-05T23:51:35.777Z,100.00
2022-09-05T23:54:02.498Z,100.00
2022-09-05T23:56:29.260Z,100.00
2022-09-05T23:58:55.963Z,100.00
